Terminal Aerodrome Forecast
Issued by NWS Lake Charles, LA

Home | Current Version | Previous Version | Text Only | Print | Product List | Glossary On
Versions: 1 2 3 4 5 6 7 8 9 10 11 12 13 14 15 16 17 18
837
FTUS44 KLCH 201730
TAFLFT
TAF
KLFT 201730Z 2018/2118 18015G21KT P6SM FEW025 BKN045
     FM202100 18013G20KT P6SM VCSH FEW030 BKN050
     FM210100 17007KT P6SM VCSH OVC015
     FM211200 17007KT 5SM -SHRA BR OVC008
     FM211500 16012KT 3SM -SHRA BR OVC004=

USA.gov is the U.S. government's official web portal to all federal, state and local government web resources and services.